createdAt,value
2022-10-22T00:00:16.657Z,100.0
2022-10-22T00:01:17.099Z,100.0
2022-10-22T00:02:16.987Z,100.0
2022-10-22T00:03:16.519Z,100.0
2022-10-22T00:04:17.004Z,100.0
2022-10-22T00:05:16.481Z,100.0
2022-10-22T00:06:16.943Z,100.0
2022-10-22T00:07:17.421Z,100.0
2022-10-22T00:08:16.844Z,100.0
2022-10-22T00:09:17.435Z,100.0
2022-10-22T00:10:16.913Z,100.0
2022-10-22T00:11:17.330Z,100.0
2022-10-22T00:12:16.602Z,100.0
2022-10-22T00:13:17.026Z,100.0
2022-10-22T00:14:16.466Z,100.0
2022-10-22T00:15:16.955Z,100.0
2022-10-22T00:16:17.424Z,100.0
2022-10-22T00:17:16.870Z,100.0
2022-10-22T00:18:17.330Z,100.0
2022-10-22T00:19:16.806Z,100.0
2022-10-22T00:20:17.277Z,100.0
2022-10-22T00:21:16.784Z,100.0
2022-10-22T00:22:16.888Z,100.0
2022-10-22T00:23:17.327Z,100.0
2022-10-22T00:24:16.764Z,100.0
2022-10-22T00:25:17.193Z,100.0
2022-10-22T00:26:16.616Z,100.0
2022-10-22T00:27:17.042Z,100.0
2022-10-22T00:28:16.482Z,100.0
2022-10-22T00:29:16.918Z,100.0
2022-10-22T00:30:17.401Z,100.0
2022-10-22T00:31:16.871Z,100.0
2022-10-22T00:32:16.632Z,100.0
2022-10-22T00:33:17.083Z,100.0
2022-10-22T00:34:16.543Z,100.0
2022-10-22T00:35:17.018Z,100.0
2022-10-22T00:36:16.470Z,100.0
2022-10-22T00:37:16.912Z,100.0
2022-10-22T00:38:17.367Z,100.0
2022-10-22T00:39:16.802Z,100.0
2022-10-22T00:40:17.241Z,100.0
2022-10-22T00:41:16.680Z,100.0
2022-10-22T00:42:17.132Z,100.0
2022-10-22T00:43:16.600Z,100.0
2022-10-22T00:44:17.055Z,100.0
2022-10-22T00:45:16.521Z,100.0
2022-10-22T00:46:16.983Z,100.0
2022-10-22T00:47:16.445Z,100.0
2022-10-22T00:48:16.899Z,100.0
2022-10-22T00:49:17.362Z,100.0
2022-10-22T00:50:16.832Z,100.0
2022-10-22T00:51:17.300Z,100.0
2022-10-22T00:52:16.670Z,100.0
2022-10-22T00:53:17.099Z,100.0
2022-10-22T00:54:16.520Z,100.0
2022-10-22T00:55:16.989Z,100.0
2022-10-22T00:56:16.434Z,100.0
2022-10-22T00:57:16.861Z,100.0
2022-10-22T00:58:17.305Z,100.0
2022-10-22T00:59:16.763Z,100.0
2022-10-22T01:00:17.254Z,100.0
2022-10-22T01:01:16.960Z,100.0
2022-10-22T01:02:16.444Z,100.0
2022-10-22T01:03:16.910Z,100.0
2022-10-22T01:04:17.382Z,100.0
2022-10-22T01:05:16.865Z,100.0
2022-10-22T01:06:17.289Z,100.0
2022-10-22T01:07:16.710Z,100.0
2022-10-22T01:08:17.178Z,100.0
2022-10-22T01:09:16.692Z,100.0
2022-10-22T01:10:17.135Z,100.0
2022-10-22T01:11:16.569Z,100.0
2022-10-22T01:12:16.431Z,100.0
2022-10-22T01:13:16.853Z,100.0
2022-10-22T01:14:17.349Z,100.0
2022-10-22T01:15:16.812Z,100.0
2022-10-22T01:16:17.278Z,100.0
2022-10-22T01:17:16.851Z,100.0
2022-10-22T01:18:17.343Z,100.0
2022-10-22T01:19:16.828Z,100.0
2022-10-22T01:20:17.303Z,100.0
2022-10-22T01:21:16.737Z,100.0
2022-10-22T01:22:17.283Z,100.0
2022-10-22T01:23:16.717Z,100.0
2022-10-22T01:24:17.151Z,100.0
2022-10-22T01:25:16.578Z,100.0
2022-10-22T01:26:17.119Z,100.0
2022-10-22T01:27:16.626Z,100.0
2022-10-22T01:28:17.077Z,100.0
2022-10-22T01:29:16.539Z,100.0
2022-10-22T01:30:17.020Z,100.0
2022-10-22T01:31:16.498Z,100.0
2022-10-22T01:32:17.389Z,100.0
2022-10-22T01:33:16.858Z,100.0
2022-10-22T01:34:17.335Z,100.0
2022-10-22T01:35:16.766Z,100.0
2022-10-22T01:36:17.184Z,100.0
2022-10-22T01:37:16.644Z,100.0
2022-10-22T01:38:17.075Z,100.0
2022-10-22T01:39:16.494Z,100.0
2022-10-22T01:40:16.967Z,100.0
2022-10-22T01:41:17.392Z,100.0
2022-10-22T01:42:17.288Z,100.0
2022-10-22T01:43:16.758Z,100.0
2022-10-22T01:44:17.248Z,100.0
2022-10-22T01:45:16.771Z,100.0
2022-10-22T01:46:17.210Z,100.0
2022-10-22T01:47:16.685Z,100.0
2022-10-22T01:48:17.163Z,100.0
2022-10-22T01:49:16.630Z,100.0
2022-10-22T01:50:17.050Z,100.0
2022-10-22T01:51:16.481Z,100.0
2022-10-22T01:52:16.937Z,100.0
2022-10-22T01:53:17.400Z,100.0
2022-10-22T01:54:16.817Z,100.0
2022-10-22T01:55:17.255Z,100.0
2022-10-22T01:56:16.682Z,100.0
2022-10-22T01:57:17.184Z,100.0
2022-10-22T01:58:16.662Z,100.0
2022-10-22T01:59:17.122Z,100.0
2022-10-22T02:00:16.604Z,100.0
2022-10-22T02:01:17.051Z,100.0
2022-10-22T02:02:16.779Z,100.0
2022-10-22T02:03:22.951Z,100.0
2022-10-22T02:04:17.301Z,100.0
2022-10-22T02:05:16.750Z,100.0
2022-10-22T02:06:17.168Z,100.0
2022-10-22T02:07:16.593Z,100.0
2022-10-22T02:08:17.075Z,100.0
2022-10-22T02:09:16.711Z,100.0
2022-10-22T02:10:17.168Z,100.0
2022-10-22T02:11:16.602Z,100.0
2022-10-22T02:12:17.140Z,100.0
2022-10-22T02:13:16.621Z,100.0
2022-10-22T02:14:17.086Z,100.0
2022-10-22T02:15:16.547Z,100.0
2022-10-22T02:16:17.013Z,100.0
2022-10-22T02:17:16.461Z,100.0
2022-10-22T02:18:16.927Z,100.0
2022-10-22T02:19:17.354Z,100.0
2022-10-22T02:20:16.801Z,100.0
2022-10-22T02:21:17.263Z,100.0
2022-10-22T02:22:16.979Z,100.0
2022-10-22T02:23:17.444Z,100.0
2022-10-22T02:24:16.858Z,100.0
2022-10-22T02:25:17.308Z,100.0
2022-10-22T02:26:16.803Z,100.0
2022-10-22T02:27:17.260Z,100.0
2022-10-22T02:28:16.704Z,100.0
2022-10-22T02:29:17.149Z,100.0
2022-10-22T02:31:17.050Z,100.0
2022-10-22T02:32:17.249Z,100.0
2022-10-22T02:33:16.695Z,100.0
2022-10-22T02:34:17.131Z,100.0
2022-10-22T02:35:16.624Z,100.0
2022-10-22T02:36:17.110Z,100.0
2022-10-22T02:37:16.568Z,100.0
2022-10-22T02:38:16.897Z,100.0
2022-10-22T02:40:16.745Z,100.0
2022-10-22T02:41:17.249Z,100.0
2022-10-22T02:42:16.805Z,100.0
2022-10-22T02:43:17.300Z,100.0
2022-10-22T02:44:16.767Z,100.0
2022-10-22T02:45:17.231Z,100.0
2022-10-22T02:46:16.698Z,100.0
2022-10-22T02:47:17.207Z,100.0
2022-10-22T02:48:16.817Z,100.0
2022-10-22T02:49:17.301Z,100.0
2022-10-22T02:50:16.738Z,100.0
2022-10-22T02:51:17.188Z,100.0
2022-10-22T02:52:16.969Z,100.0
2022-10-22T02:53:17.424Z,100.0
2022-10-22T02:54:16.884Z,100.0
2022-10-22T02:55:17.352Z,100.0
2022-10-22T02:56:16.812Z,100.0
2022-10-22T02:57:17.360Z,100.0
2022-10-22T02:58:16.853Z,100.0
2022-10-22T02:59:17.318Z,100.0
2022-10-22T03:00:16.798Z,100.0
2022-10-22T03:01:17.364Z,100.0
2022-10-22T03:02:16.881Z,100.0
2022-10-22T03:03:17.359Z,100.0
2022-10-22T03:04:16.783Z,100.0
2022-10-22T03:05:17.226Z,100.0
2022-10-22T03:06:16.796Z,100.0
2022-10-22T03:07:17.302Z,100.0
2022-10-22T03:08:16.720Z,100.0
2022-10-22T03:09:22.749Z,100.0
2022-10-22T03:10:17.255Z,100.0
2022-10-22T03:11:16.715Z,100.0
2022-10-22T03:12:16.489Z,100.0
2022-10-22T03:13:16.963Z,100.0
2022-10-22T03:14:17.435Z,100.0
2022-10-22T03:15:17.077Z,100.0
2022-10-22T03:16:16.614Z,100.0
2022-10-22T03:17:17.071Z,100.0
2022-10-22T03:18:16.486Z,100.0
2022-10-22T03:19:16.950Z,100.0
2022-10-22T03:20:17.379Z,100.0
2022-10-22T03:21:16.800Z,100.0
2022-10-22T03:22:16.480Z,100.0
2022-10-22T03:23:16.920Z,100.0
2022-10-22T03:24:17.370Z,100.0
2022-10-22T03:25:16.869Z,100.0
2022-10-22T03:26:17.332Z,100.0
2022-10-22T03:27:16.792Z,100.0
2022-10-22T03:28:17.272Z,100.0
2022-10-22T03:29:16.735Z,100.0
2022-10-22T03:30:17.243Z,100.0
2022-10-22T03:31:16.733Z,100.0
2022-10-22T03:32:17.373Z,100.0
2022-10-22T03:33:16.823Z,100.0
2022-10-22T03:34:17.246Z,100.0
2022-10-22T03:35:16.683Z,100.0
2022-10-22T03:36:17.130Z,100.0
2022-10-22T03:37:16.583Z,100.0
2022-10-22T03:38:17.034Z,100.0
2022-10-22T03:39:16.493Z,100.0
2022-10-22T03:40:16.981Z,100.0
2022-10-22T03:41:16.448Z,100.0
2022-10-22T03:42:16.858Z,100.0
2022-10-22T03:43:17.356Z,100.0
2022-10-22T03:44:16.809Z,100.0
2022-10-22T03:45:17.294Z,100.0
2022-10-22T03:46:16.746Z,100.0
2022-10-22T03:47:17.187Z,100.0
2022-10-22T03:48:16.634Z,100.0
2022-10-22T03:49:17.071Z,100.0
2022-10-22T03:50:16.518Z,100.0
2022-10-22T03:51:16.967Z,100.0
2022-10-22T03:52:16.680Z,100.0
2022-10-22T03:53:17.106Z,100.0
2022-10-22T03:54:16.557Z,100.0
2022-10-22T03:55:17.031Z,100.0
2022-10-22T03:56:16.488Z,100.0
2022-10-22T03:57:16.950Z,100.0
2022-10-22T03:58:17.450Z,100.0
2022-10-22T03:59:16.924Z,100.0
2022-10-22T04:00:17.386Z,100.0
2022-10-22T04:01:16.944Z,100.0
2022-10-22T04:02:17.245Z,100.0
2022-10-22T04:03:16.669Z,100.0
2022-10-22T04:04:17.087Z,100.0
2022-10-22T04:05:16.550Z,100.0
2022-10-22T04:06:16.979Z,100.0
2022-10-22T04:07:16.445Z,100.0
2022-10-22T04:08:16.868Z,100.0
2022-10-22T04:09:17.439Z,100.0
2022-10-22T04:10:16.910Z,100.0
2022-10-22T04:11:17.387Z,100.0
2022-10-22T04:12:16.945Z,100.0
2022-10-22T04:13:17.434Z,100.0
2022-10-22T04:14:16.884Z,100.0
2022-10-22T04:15:17.352Z,100.0
2022-10-22T04:16:16.835Z,100.0
2022-10-22T04:17:17.306Z,100.0
2022-10-22T04:18:16.738Z,100.0
2022-10-22T04:19:17.193Z,100.0
2022-10-22T04:20:16.656Z,100.0
2022-10-22T04:21:17.086Z,100.0
2022-10-22T04:22:17.022Z,100.0
2022-10-22T04:23:16.446Z,100.0
2022-10-22T04:24:16.869Z,100.0
2022-10-22T04:25:17.364Z,100.0
2022-10-22T04:26:16.830Z,100.0
2022-10-22T04:27:17.284Z,100.0
2022-10-22T04:28:16.729Z,100.0
2022-10-22T04:29:17.214Z,100.0
2022-10-22T04:30:16.686Z,100.0
2022-10-22T04:31:17.207Z,100.0
2022-10-22T04:32:17.030Z,100.0
2022-10-22T04:33:16.454Z,100.0
2022-10-22T04:34:16.876Z,100.0
2022-10-22T04:35:17.442Z,100.0
2022-10-22T04:36:16.914Z,100.0
2022-10-22T04:37:17.338Z,100.0
2022-10-22T04:38:16.766Z,100.0
2022-10-22T04:39:17.237Z,100.0
2022-10-22T04:40:16.699Z,100.0
2022-10-22T04:41:17.199Z,100.0
2022-10-22T04:42:17.056Z,100.0
2022-10-22T04:43:16.509Z,100.0
2022-10-22T04:44:18.811Z,100.0
2022-10-22T04:45:16.547Z,100.0
2022-10-22T04:46:17.036Z,100.0
2022-10-22T04:47:16.463Z,100.0
2022-10-22T04:48:16.881Z,100.0
2022-10-22T04:49:17.317Z,100.0
2022-10-22T04:50:16.754Z,100.0
2022-10-22T04:51:17.192Z,100.0
2022-10-22T04:52:17.071Z,100.0
2022-10-22T04:53:16.531Z,100.0
2022-10-22T04:54:16.985Z,100.0
2022-10-22T04:55:16.443Z,100.0
2022-10-22T04:56:16.901Z,100.0
2022-10-22T04:57:17.398Z,100.0
2022-10-22T04:58:16.886Z,100.0
2022-10-22T04:59:17.359Z,100.0
2022-10-22T05:00:16.849Z,100.0
2022-10-22T05:01:17.591Z,100.0
2022-10-22T05:02:16.858Z,100.0
2022-10-22T05:03:17.305Z,100.0
2022-10-22T05:04:16.739Z,100.0
2022-10-22T05:05:17.164Z,100.0
2022-10-22T05:06:16.628Z,100.0
2022-10-22T05:07:17.070Z,100.0
2022-10-22T05:08:16.496Z,100.0
2022-10-22T05:09:17.144Z,100.0
2022-10-22T05:10:16.689Z,100.0
2022-10-22T05:11:17.134Z,100.0
2022-10-22T05:12:16.895Z,100.0
2022-10-22T05:13:17.371Z,100.0
2022-10-22T05:14:16.855Z,100.0
2022-10-22T05:15:17.347Z,100.0
2022-10-22T05:16:16.791Z,100.0
2022-10-22T05:17:17.226Z,100.0
2022-10-22T05:18:21.897Z,100.0
2022-10-22T05:19:17.123Z,100.0
2022-10-22T05:20:16.547Z,100.0
2022-10-22T05:21:16.982Z,100.0
2022-10-22T05:22:16.900Z,100.0
2022-10-22T05:23:17.397Z,100.0
2022-10-22T05:24:16.855Z,100.0
2022-10-22T05:25:17.338Z,100.0
2022-10-22T05:26:16.788Z,100.0
2022-10-22T05:28:16.739Z,100.0
2022-10-22T05:29:17.217Z,100.0
2022-10-22T05:30:16.684Z,100.0
2022-10-22T05:31:17.134Z,100.0
2022-10-22T05:32:16.714Z,100.0
2022-10-22T05:33:23.345Z,100.0
2022-10-22T05:34:16.633Z,100.0
2022-10-22T05:35:17.076Z,100.0
2022-10-22T05:36:16.506Z,100.0
2022-10-22T05:37:16.970Z,100.0
2022-10-22T05:38:17.441Z,100.0
2022-10-22T05:39:16.913Z,100.0
2022-10-22T05:40:30.967Z,100.0
2022-10-22T05:41:16.824Z,100.0
2022-10-22T05:42:17.014Z,100.0
2022-10-22T05:43:16.502Z,100.0
2022-10-22T05:44:16.978Z,100.0
2022-10-22T05:45:16.410Z,100.0
2022-10-22T05:46:22.954Z,100.0
2022-10-22T05:47:16.592Z,100.0
2022-10-22T05:48:17.038Z,100.0
2022-10-22T05:49:16.493Z,100.0
2022-10-22T05:50:16.916Z,100.0
2022-10-22T05:51:17.341Z,100.0
2022-10-22T05:52:16.706Z,100.0
2022-10-22T05:53:17.176Z,100.0
2022-10-22T05:54:16.652Z,100.0
2022-10-22T05:55:17.139Z,100.0
2022-10-22T05:56:16.612Z,100.0
2022-10-22T05:57:17.072Z,100.0
2022-10-22T05:58:16.559Z,100.0
2022-10-22T05:59:17.039Z,100.0
2022-10-22T06:00:16.794Z,100.0
2022-10-22T06:01:17.266Z,100.0
2022-10-22T06:02:16.998Z,100.0
2022-10-22T06:03:16.441Z,100.0
2022-10-22T06:04:16.885Z,100.0
2022-10-22T06:05:17.342Z,100.0
2022-10-22T06:06:16.829Z,100.0
2022-10-22T06:07:17.289Z,100.0
2022-10-22T06:08:19.290Z,100.0
2022-10-22T06:09:16.788Z,100.0
2022-10-22T06:10:17.275Z,100.0
2022-10-22T06:11:16.742Z,100.0
2022-10-22T06:12:17.065Z,100.0
2022-10-22T06:13:16.489Z,100.0
2022-10-22T06:14:16.951Z,100.0
2022-10-22T06:15:17.407Z,100.0
2022-10-22T06:16:16.839Z,100.0
2022-10-22T06:17:17.275Z,100.0
2022-10-22T06:18:16.702Z,100.0
2022-10-22T06:19:17.127Z,100.0
2022-10-22T06:20:16.625Z,100.0
2022-10-22T06:21:17.116Z,100.0
2022-10-22T06:22:17.041Z,100.0
2022-10-22T06:23:16.521Z,100.0
2022-10-22T06:24:16.975Z,100.0
2022-10-22T06:25:16.461Z,100.0
2022-10-22T06:26:16.932Z,100.0
2022-10-22T06:27:17.397Z,100.0
2022-10-22T06:28:16.926Z,100.0
2022-10-22T06:29:17.375Z,100.0
2022-10-22T06:30:16.834Z,100.0
2022-10-22T06:31:17.271Z,100.0
2022-10-22T06:32:16.883Z,100.0
2022-10-22T06:33:17.350Z,100.0
2022-10-22T06:34:16.805Z,100.0
2022-10-22T06:35:17.284Z,100.0
2022-10-22T06:36:16.763Z,100.0
2022-10-22T06:37:17.263Z,100.0
2022-10-22T06:38:16.765Z,100.0
2022-10-22T06:39:17.258Z,100.0
2022-10-22T06:40:16.753Z,100.0
2022-10-22T06:41:17.220Z,100.0
2022-10-22T06:42:16.947Z,100.0
2022-10-22T06:43:17.414Z,100.0
2022-10-22T06:44:16.845Z,100.0
2022-10-22T06:45:17.269Z,100.0
2022-10-22T06:46:20.347Z,100.0
2022-10-22T06:47:16.843Z,100.0
2022-10-22T06:48:17.264Z,100.0
2022-10-22T06:49:16.729Z,100.0
2022-10-22T06:50:17.181Z,100.0
2022-10-22T06:51:16.643Z,100.0
2022-10-22T06:52:17.019Z,100.0
2022-10-22T06:53:16.632Z,100.0
2022-10-22T06:54:17.121Z,100.0
2022-10-22T06:55:16.572Z,100.0
2022-10-22T06:56:17.011Z,100.0
2022-10-22T06:57:16.445Z,100.0
2022-10-22T06:58:16.871Z,100.0
2022-10-22T06:59:17.297Z,100.0
2022-10-22T07:00:16.796Z,100.0
2022-10-22T07:01:17.363Z,100.0
2022-10-22T07:02:16.721Z,100.0
2022-10-22T07:03:17.181Z,100.0
2022-10-22T07:04:16.629Z,100.0
2022-10-22T07:05:17.088Z,100.0
2022-10-22T07:06:16.564Z,100.0
2022-10-22T07:07:17.017Z,100.0
2022-10-22T07:08:16.483Z,100.0
2022-10-22T07:10:17.445Z,100.0
2022-10-22T07:11:16.883Z,100.0
2022-10-22T07:12:16.727Z,100.0
2022-10-22T07:13:17.164Z,100.0
2022-10-22T07:14:16.609Z,100.0
2022-10-22T07:15:17.069Z,100.0
2022-10-22T07:16:16.498Z,100.0
2022-10-22T07:17:16.960Z,100.0
2022-10-22T07:18:17.430Z,100.0
2022-10-22T07:19:16.900Z,100.0
2022-10-22T07:20:17.360Z,100.0
2022-10-22T07:21:16.827Z,100.0
2022-10-22T07:22:16.689Z,100.0
2022-10-22T07:23:17.184Z,100.0
2022-10-22T07:24:16.669Z,100.0
2022-10-22T07:25:17.122Z,100.0
2022-10-22T07:26:16.580Z,100.0
2022-10-22T07:27:17.012Z,100.0
2022-10-22T07:28:16.480Z,100.0
2022-10-22T07:29:16.909Z,100.0
2022-10-22T07:30:17.358Z,100.0
2022-10-22T07:31:16.787Z,100.0
2022-10-22T07:32:21.685Z,100.0
2022-10-22T07:33:17.467Z,100.0
2022-10-22T07:34:17.052Z,100.0
2022-10-22T07:35:16.549Z,100.0
2022-10-22T07:36:17.002Z,100.0
2022-10-22T07:37:16.482Z,100.0
2022-10-22T07:38:16.941Z,100.0
2022-10-22T07:39:17.393Z,100.0
2022-10-22T07:40:16.897Z,100.0
2022-10-22T07:41:17.355Z,100.0
2022-10-22T07:42:17.097Z,100.0
2022-10-22T07:43:16.556Z,100.0
2022-10-22T07:44:16.988Z,100.0
2022-10-22T07:45:16.420Z,100.0
2022-10-22T07:46:16.875Z,99.9
2022-10-22T07:47:17.350Z,99.8
2022-10-22T07:48:16.813Z,99.6
2022-10-22T07:49:17.290Z,99.5
2022-10-22T07:50:16.757Z,99.5
2022-10-22T07:51:17.233Z,99.7
2022-10-22T07:52:16.699Z,99.7
2022-10-22T07:53:17.195Z,99.5
2022-10-22T07:54:16.636Z,99.5
2022-10-22T07:55:17.058Z,99.5
2022-10-22T07:56:16.698Z,99.5
2022-10-22T07:57:17.129Z,99.4
2022-10-22T07:58:16.553Z,99.2
2022-10-22T07:59:16.989Z,99.0
2022-10-22T08:00:16.518Z,98.9
2022-10-22T08:01:17.393Z,98.8
2022-10-22T08:02:17.023Z,98.4
2022-10-22T08:03:16.507Z,98.0
2022-10-22T08:04:16.968Z,98.0
2022-10-22T08:05:17.444Z,97.9
2022-10-22T08:06:16.919Z,97.6
2022-10-22T08:07:17.539Z,97.8
2022-10-22T08:08:16.989Z,97.0
2022-10-22T08:09:16.537Z,96.5
2022-10-22T08:10:16.986Z,96.2
2022-10-22T08:11:16.455Z,96.2
2022-10-22T08:12:17.072Z,95.7
2022-10-22T08:13:16.498Z,95.5
2022-10-22T08:14:16.982Z,95.7
2022-10-22T08:15:16.441Z,96.4
2022-10-22T08:16:16.885Z,96.3
2022-10-22T08:17:17.353Z,96.2
2022-10-22T08:18:16.835Z,96.2
2022-10-22T08:19:17.300Z,96.0
2022-10-22T08:20:16.806Z,95.8
2022-10-22T08:21:17.305Z,95.8
2022-10-22T08:22:17.339Z,96.2
2022-10-22T08:23:16.772Z,96.5
2022-10-22T08:24:17.203Z,96.5
2022-10-22T08:25:16.642Z,96.5
2022-10-22T08:26:17.062Z,96.7
2022-10-22T08:27:16.495Z,96.7
2022-10-22T08:28:22.168Z,96.7
2022-10-22T08:29:16.890Z,96.8
2022-10-22T08:30:17.360Z,96.8
2022-10-22T08:31:16.956Z,96.9
2022-10-22T08:32:17.300Z,96.8
2022-10-22T08:33:16.783Z,96.8
2022-10-22T08:34:17.273Z,96.7
2022-10-22T08:35:17.931Z,96.3
2022-10-22T08:36:17.399Z,95.8
2022-10-22T08:37:16.824Z,95.4
2022-10-22T08:38:17.294Z,93.9
2022-10-22T08:39:16.707Z,92.7
2022-10-22T08:40:17.148Z,92.2
2022-10-22T08:41:16.603Z,92.0
2022-10-22T08:42:17.056Z,91.8
2022-10-22T08:43:16.478Z,92.0
2022-10-22T08:44:16.896Z,91.6
2022-10-22T08:45:17.409Z,91.5
2022-10-22T08:46:16.894Z,91.1
2022-10-22T08:47:22.499Z,89.8
2022-10-22T08:48:17.197Z,89.6
2022-10-22T08:49:16.667Z,89.0
2022-10-22T08:50:17.119Z,89.1
2022-10-22T08:51:16.583Z,90.3
2022-10-22T08:52:17.446Z,89.8
2022-10-22T08:53:16.868Z,89.5
2022-10-22T08:54:17.296Z,88.8
2022-10-22T08:55:16.754Z,88.5
2022-10-22T08:56:17.182Z,88.2
2022-10-22T08:57:16.608Z,88.6
2022-10-22T08:58:17.052Z,87.9
2022-10-22T08:59:16.491Z,88.2
2022-10-22T09:00:16.937Z,87.3
2022-10-22T09:01:17.409Z,86.7
2022-10-22T09:02:17.380Z,86.7
2022-10-22T09:03:16.848Z,87.4
2022-10-22T09:04:17.324Z,87.5
2022-10-22T09:05:16.800Z,87.2
2022-10-22T09:06:17.275Z,87.7
2022-10-22T09:07:16.732Z,87.3
2022-10-22T09:08:17.180Z,86.5
2022-10-22T09:09:16.842Z,86.8
2022-10-22T09:10:17.344Z,87.5
2022-10-22T09:11:16.780Z,88.0
2022-10-22T09:12:20.625Z,87.8
2022-10-22T09:13:17.100Z,87.6
2022-10-22T09:14:16.601Z,86.7
2022-10-22T09:15:17.169Z,87.2
2022-10-22T09:16:16.674Z,87.9
2022-10-22T09:17:17.144Z,87.8
2022-10-22T09:18:16.623Z,87.8
2022-10-22T09:19:17.121Z,87.7
2022-10-22T09:20:16.748Z,87.9
2022-10-22T09:21:17.273Z,88.7
2022-10-22T09:22:16.527Z,88.2
2022-10-22T09:23:16.960Z,88.3
2022-10-22T09:24:17.389Z,88.4
2022-10-22T09:25:16.814Z,88.5
2022-10-22T09:26:17.269Z,89.2
2022-10-22T09:27:16.693Z,89.4
2022-10-22T09:28:17.137Z,89.5
2022-10-22T09:29:16.675Z,89.4
2022-10-22T09:30:16.454Z,89.5
2022-10-22T09:31:16.948Z,89.7
2022-10-22T09:32:16.783Z,89.6
2022-10-22T09:33:24.064Z,89.8
2022-10-22T09:34:17.322Z,89.5
2022-10-22T09:35:16.808Z,88.8
2022-10-22T09:36:17.274Z,88.6
2022-10-22T09:37:16.703Z,89.3
2022-10-22T09:38:17.154Z,88.6
2022-10-22T09:40:17.005Z,88.7
2022-10-22T09:41:16.484Z,88.8
2022-10-22T09:42:16.531Z,88.4
2022-10-22T09:43:16.992Z,88.4
2022-10-22T09:44:16.457Z,90.1
2022-10-22T09:45:16.959Z,90.2
2022-10-22T09:46:17.454Z,90.5
2022-10-22T09:47:16.944Z,90.0
2022-10-22T09:48:17.439Z,90.7
2022-10-22T09:49:16.899Z,90.9
2022-10-22T09:50:17.452Z,91.2
2022-10-22T09:51:16.883Z,91.6
2022-10-22T09:52:16.983Z,91.8
2022-10-22T09:53:16.450Z,91.7
2022-10-22T09:54:16.920Z,89.6
2022-10-22T09:55:17.350Z,89.8
2022-10-22T09:56:16.828Z,89.9
2022-10-22T09:57:17.280Z,89.7
2022-10-22T09:58:16.773Z,89.9
2022-10-22T09:59:17.258Z,90.1
2022-10-22T10:00:16.764Z,90.6
2022-10-22T10:01:17.236Z,90.3
2022-10-22T10:02:38.438Z,90.5
2022-10-22T10:03:17.489Z,90.2
2022-10-22T10:04:17.083Z,90.1
2022-10-22T10:05:16.539Z,88.2
2022-10-22T10:06:16.971Z,88.2
2022-10-22T10:07:17.409Z,86.8
2022-10-22T10:08:16.843Z,85.3
2022-10-22T10:09:17.446Z,83.2
2022-10-22T10:10:16.964Z,82.3
2022-10-22T10:11:17.398Z,81.6
2022-10-22T10:12:17.435Z,82.6
2022-10-22T10:13:16.902Z,81.8
2022-10-22T10:14:17.411Z,81.7
2022-10-22T10:15:16.883Z,82.4
2022-10-22T10:16:17.346Z,81.2
2022-10-22T10:17:16.826Z,81.4
2022-10-22T10:18:17.312Z,82.8
2022-10-22T10:19:16.765Z,82.3
2022-10-22T10:20:17.188Z,83.6
2022-10-22T10:21:16.658Z,82.5
2022-10-22T10:22:16.971Z,82.8
2022-10-22T10:23:21.724Z,82.6
2022-10-22T10:24:16.912Z,82.6
2022-10-22T10:25:17.333Z,82.3
2022-10-22T10:26:16.762Z,82.5
2022-10-22T10:27:17.241Z,83.0
2022-10-22T10:28:16.691Z,82.1
2022-10-22T10:29:17.193Z,82.9
2022-10-22T10:30:16.685Z,81.8
2022-10-22T10:31:17.206Z,82.7
2022-10-22T10:32:23.532Z,81.4
2022-10-22T10:33:16.925Z,82.1
2022-10-22T10:34:17.378Z,82.3
2022-10-22T10:35:16.834Z,82.8
2022-10-22T10:36:17.289Z,82.3
2022-10-22T10:37:16.711Z,82.7
2022-10-22T10:38:17.196Z,83.8
2022-10-22T10:39:16.632Z,82.4
2022-10-22T10:40:17.070Z,82.5
2022-10-22T10:41:16.534Z,82.5
2022-10-22T10:42:16.563Z,83.2
2022-10-22T10:43:17.019Z,82.8
2022-10-22T10:44:16.508Z,83.2
2022-10-22T10:45:16.976Z,84.3
2022-10-22T10:47:16.879Z,83.7
2022-10-22T10:48:17.360Z,83.3
2022-10-22T10:49:16.815Z,84.2
2022-10-22T10:50:17.243Z,84.1
2022-10-22T10:51:16.674Z,84.2
2022-10-22T10:52:21.412Z,84.2
2022-10-22T10:53:16.974Z,84.2
2022-10-22T10:54:17.416Z,84.9
2022-10-22T10:55:16.876Z,84.9
2022-10-22T10:56:17.343Z,85.3
2022-10-22T10:57:16.812Z,84.8
2022-10-22T10:58:17.258Z,84.4
2022-10-22T10:59:16.718Z,85.2
2022-10-22T11:00:17.187Z,85.4
2022-10-22T11:01:16.757Z,84.2
2022-10-22T11:02:16.499Z,84.6
2022-10-22T11:03:16.956Z,85.2
2022-10-22T11:04:17.410Z,84.3
2022-10-22T11:05:16.851Z,84.0
2022-10-22T11:06:19.485Z,84.3
2022-10-22T11:07:34.486Z,84.2
2022-10-22T11:08:17.190Z,84.9
2022-10-22T11:09:16.758Z,84.2
2022-10-22T11:10:17.250Z,85.0
2022-10-22T11:12:17.329Z,84.2
2022-10-22T11:13:16.804Z,84.2
2022-10-22T11:14:17.261Z,83.8
2022-10-22T11:15:16.736Z,83.7
2022-10-22T11:16:17.260Z,83.7
2022-10-22T11:17:16.721Z,84.1
2022-10-22T11:18:17.144Z,85.0
2022-10-22T11:19:39.563Z,84.7
2022-10-22T11:20:16.716Z,83.9
2022-10-22T11:21:17.138Z,83.8
2022-10-22T11:22:17.022Z,84.5
2022-10-22T11:23:22.095Z,83.8
2022-10-22T11:24:16.779Z,83.0
2022-10-22T11:25:17.225Z,82.9
2022-10-22T11:26:16.694Z,81.1
2022-10-22T11:27:17.183Z,81.8
2022-10-22T11:28:16.811Z,81.5
2022-10-22T11:29:17.306Z,80.9
2022-10-22T11:30:16.787Z,81.7
2022-10-22T11:31:17.263Z,80.2
2022-10-22T11:32:17.026Z,81.0
2022-10-22T11:33:16.491Z,79.9
2022-10-22T11:34:33.486Z,80.4
2022-10-22T11:35:17.281Z,79.9
2022-10-22T11:36:16.717Z,80.0
2022-10-22T11:37:17.200Z,79.7
2022-10-22T11:38:16.656Z,80.2
2022-10-22T11:39:17.121Z,80.6
2022-10-22T11:40:16.592Z,81.8
2022-10-22T11:41:17.058Z,80.2
2022-10-22T11:42:17.467Z,80.2
2022-10-22T11:43:16.952Z,80.3
2022-10-22T11:44:17.410Z,80.8
2022-10-22T11:45:16.963Z,81.0
2022-10-22T11:46:17.438Z,80.6
2022-10-22T11:47:16.884Z,80.7
2022-10-22T11:48:17.436Z,81.0
2022-10-22T11:49:16.885Z,81.4
2022-10-22T11:50:17.323Z,81.0
2022-10-22T11:51:16.762Z,81.2
2022-10-22T11:52:17.180Z,82.0
2022-10-22T11:53:16.603Z,81.8
2022-10-22T11:54:17.060Z,82.2
2022-10-22T11:55:16.538Z,81.9
2022-10-22T11:56:17.001Z,82.2
2022-10-22T11:57:16.464Z,81.9
2022-10-22T11:58:16.939Z,82.1
2022-10-22T11:59:17.393Z,81.8
2022-10-22T12:00:16.862Z,81.7
2022-10-22T12:01:17.351Z,81.7
2022-10-22T12:02:16.748Z,81.8
2022-10-22T12:03:17.209Z,81.9
2022-10-22T12:04:16.782Z,81.9
2022-10-22T12:05:17.226Z,82.0
2022-10-22T12:06:16.674Z,81.8
2022-10-22T12:07:17.110Z,82.0
2022-10-22T12:08:16.566Z,81.2
2022-10-22T12:09:17.160Z,80.7
2022-10-22T12:10:18.670Z,80.5
2022-10-22T12:11:17.144Z,80.2
2022-10-22T12:12:17.299Z,80.2
2022-10-22T12:13:16.768Z,79.8
2022-10-22T12:14:17.309Z,79.7
2022-10-22T12:15:16.810Z,79.7
2022-10-22T12:16:37.629Z,79.9
2022-10-22T12:17:16.880Z,79.9
2022-10-22T12:18:17.351Z,80.1
2022-10-22T12:19:16.776Z,79.9
2022-10-22T12:20:17.205Z,80.3
2022-10-22T12:21:16.666Z,80.6
2022-10-22T12:22:17.018Z,79.4
2022-10-22T12:23:16.484Z,79.9
2022-10-22T12:24:16.942Z,79.8
2022-10-22T12:25:17.415Z,80.6
2022-10-22T12:26:16.863Z,80.1
2022-10-22T12:27:22.230Z,80.0
2022-10-22T12:28:17.366Z,80.1
2022-10-22T12:29:16.823Z,80.0
2022-10-22T12:30:17.304Z,78.7
2022-10-22T12:31:16.744Z,79.0
2022-10-22T12:32:17.089Z,79.4
2022-10-22T12:33:16.539Z,78.3
2022-10-22T12:34:16.966Z,77.7
2022-10-22T12:35:17.426Z,77.2
2022-10-22T12:36:16.858Z,77.2
2022-10-22T12:37:17.279Z,77.4
2022-10-22T12:38:16.729Z,76.8
2022-10-22T12:39:17.180Z,76.3
2022-10-22T12:40:16.624Z,76.7
2022-10-22T12:41:17.081Z,77.9
2022-10-22T12:42:17.201Z,76.5
2022-10-22T12:43:16.700Z,77.5
2022-10-22T12:44:17.172Z,76.9
2022-10-22T12:45:16.651Z,77.8
2022-10-22T12:46:17.117Z,77.2
2022-10-22T12:47:16.553Z,76.9
2022-10-22T12:48:17.108Z,77.8
2022-10-22T12:49:16.575Z,77.1
2022-10-22T12:50:17.012Z,77.8
2022-10-22T12:51:16.451Z,77.2
2022-10-22T12:52:16.427Z,78.0
2022-10-22T12:53:16.915Z,78.6
2022-10-22T12:54:17.400Z,78.3
2022-10-22T12:55:16.851Z,79.3
2022-10-22T12:56:17.317Z,79.2
2022-10-22T12:57:16.778Z,78.8
2022-10-22T12:58:17.268Z,78.2
2022-10-22T12:59:16.743Z,78.6
2022-10-22T13:00:17.204Z,78.8
2022-10-22T13:01:16.736Z,79.2
2022-10-22T13:02:16.557Z,78.8
2022-10-22T13:03:17.032Z,79.0
2022-10-22T13:04:16.465Z,78.2
2022-10-22T13:05:16.899Z,78.4
2022-10-22T13:06:17.320Z,77.7
2022-10-22T13:07:22.085Z,77.8
2022-10-22T13:08:16.962Z,77.5
2022-10-22T13:09:16.762Z,78.3
2022-10-22T13:10:17.328Z,78.2